Time;durP1;ratioP1;P1;durP2;ratioP2;P2;SDS_P1;SDS_P2;PMS_P1;PMS_P2;Temp;Humidity;BMP_temperature;BMP_pressure;BME280_temperature;BME280_humidity;BME280_pressure;Samples;Min_cycle;Max_cycle;Signal;HPM_P1;HPM_P2
2021/12/04 00:01:10;;;;;;;16.50;8.98;;;;;;;7.05;100.00;96933.00;5056891;28;20531;-92
2021/12/04 00:03:37;;;;;;;14.63;8.57;;;;;;;7.04;100.00;96933.94;5040606;28;20032;-93
2021/12/04 00:06:07;;;;;;;15.40;8.40;;;;;;;7.08;100.00;96945.25;5040634;28;20060;-89
2021/12/04 00:08:35;;;;;;;13.55;8.15;;;;;;;7.17;100.00;96952.69;5040725;28;20029;-92
2021/12/04 00:11:02;;;;;;;9.65;6.63;;;;;;;7.23;100.00;96959.47;5056417;28;20040;-90
2021/12/04 00:13:28;;;;;;;10.18;6.53;;;;;;;7.18;100.00;96958.88;5039222;28;20119;-91
2021/12/04 00:15:53;;;;;;;13.18;7.57;;;;;;;7.04;100.00;96933.94;5055133;28;20068;-90
2021/12/04 00:18:19;;;;;;;11.30;7.10;;;;;;;7.01;100.00;96922.63;5038632;28;20082;-91
2021/12/04 00:20:44;;;;;;;10.15;6.43;;;;;;;7.24;100.00;96950.53;5038585;28;20469;-90
2021/12/04 00:23:10;;;;;;;13.50;7.90;;;;;;;7.24;100.00;96945.22;5055736;28;20037;-90
2021/12/04 00:25:38;;;;;;;15.25;8.43;;;;;;;6.99;100.00;96906.75;5039547;28;20106;-93
2021/12/04 00:28:04;;;;;;;15.30;9.43;;;;;;;7.18;100.00;96945.56;5039813;28;20056;-92
2021/12/04 00:30:29;;;;;;;15.85;8.27;;;;;;;7.00;100.00;96943.06;5039110;28;20040;-90
2021/12/04 00:33:01;;;;;;;13.10;7.82;;;;;;;6.93;100.00;96915.09;5039290;28;20029;-91
2021/12/04 00:43:15;;;;;;;11.65;7.28;;;;;;;7.16;100.00;96932.38;5055809;28;20492;-91
2021/12/04 00:49:13;;;;;;;9.15;6.03;;;;;;;7.03;100.00;96953.50;5019719;28;20038;-91
2021/12/04 00:51:46;;;;;;;9.88;5.90;;;;;;;7.02;100.00;96949.13;4999807;28;20037;-91
2021/12/04 00:54:13;;;;;;;12.57;6.47;;;;;;;7.01;100.00;96944.75;5018056;28;20123;-88
2021/12/04 00:56:41;;;;;;;9.68;6.07;;;;;;;7.06;100.00;96956.00;5038062;28;20086;-91
2021/12/04 00:59:07;;;;;;;13.15;6.07;;;;;;;7.05;100.00;96940.97;5038981;28;20035;-90
2021/12/04 01:01:32;;;;;;;8.38;5.60;;;;;;;7.10;100.00;96940.72;5038895;28;20112;-92
2021/12/04 01:03:58;;;;;;;8.10;5.45;;;;;;;7.14;100.00;96946.72;5039297;28;20036;-91
2021/12/04 01:06:24;;;;;;;9.35;5.82;;;;;;;6.97;100.00;96926.41;5038964;28;20511;-90
2021/12/04 01:08:49;;;;;;;9.52;5.10;;;;;;;7.00;100.00;96929.75;5038488;28;20123;-90
2021/12/04 01:11:15;;;;;;;8.45;5.22;;;;;;;7.04;100.00;96931.28;5055363;28;20112;-91
2021/12/04 01:13:40;;;;;;;8.85;5.22;;;;;;;6.93;100.00;96924.88;5042391;28;20510;-92
2021/12/04 01:16:06;;;;;;;9.48;5.82;;;;;;;6.89;100.00;96912.72;5042171;28;20036;-92
2021/12/04 01:18:32;;;;;;;9.57;5.78;;;;;;;7.02;100.00;96927.00;5042532;28;20029;-90
2021/12/04 01:20:58;;;;;;;12.77;6.18;;;;;;;6.77;100.00;96886.81;5042809;28;20083;-90
2021/12/04 01:23:23;;;;;;;10.02;6.32;;;;;;;6.92;100.00;96913.38;5058768;28;20466;-88
2021/12/04 01:25:49;;;;;;;11.48;6.88;;;;;;;6.84;100.00;96899.69;5059009;28;20569;-91
2021/12/04 01:28:14;;;;;;;12.20;7.47;;;;;;;6.59;100.00;96894.03;5042605;28;20087;-90
2021/12/04 01:30:40;;;;;;;12.18;7.43;;;;;;;6.55;100.00;96874.75;5057438;28;20543;-90
2021/12/04 01:33:06;;;;;;;11.77;7.43;;;;;;;6.68;100.00;96882.03;5058456;28;20029;-91
2021/12/04 01:35:32;;;;;;;13.75;7.68;;;;;;;6.77;100.00;96881.50;5041792;28;20040;-89
2021/12/04 01:37:58;;;;;;;10.80;7.25;;;;;;;6.66;100.00;96860.88;5058099;28;20492;-90
2021/12/04 01:40:24;;;;;;;9.45;6.95;;;;;;;6.82;100.00;96896.25;5041566;28;20059;-90
2021/12/04 01:42:49;;;;;;;11.65;7.80;;;;;;;6.64;100.00;96880.50;5059037;28;20028;-90
2021/12/04 01:45:17;;;;;;;10.43;6.75;;;;;;;6.69;100.00;96894.38;5058112;28;20037;-90
2021/12/04 01:47:43;;;;;;;13.48;7.85;;;;;;;6.60;100.00;96878.97;5042176;28;20045;-89
2021/12/04 01:50:09;;;;;;;10.90;7.10;;;;;;;6.64;100.00;96885.81;5041827;28;20093;-92
2021/12/04 01:52:35;;;;;;;10.02;6.30;;;;;;;6.49;100.00;96898.19;5042134;28;20043;-91
2021/12/04 01:55:01;;;;;;;10.40;6.50;;;;;;;6.64;100.00;96902.63;5042122;28;20025;-91
2021/12/04 01:57:27;;;;;;;11.25;5.50;;;;;;;6.65;100.00;96887.53;5041524;28;20506;-92
2021/12/04 01:59:53;;;;;;;9.88;5.35;;;;;;;6.68;100.00;96877.56;5058231;28;20025;-90
2021/12/04 02:02:19;;;;;;;8.73;5.35;;;;;;;6.69;100.00;96887.28;5041947;28;20028;-91
2021/12/04 02:04:45;;;;;;;10.40;6.15;;;;;;;6.75;100.00;96902.88;5057368;28;20036;-89
2021/12/04 02:07:12;;;;;;;9.77;6.45;;;;;;;6.81;100.00;96923.78;5042832;28;20032;-91
2021/12/04 02:09:38;;;;;;;11.05;6.43;;;;;;;6.52;100.00;96876.75;5041533;28;20032;-90
2021/12/04 02:12:05;;;;;;;11.52;7.38;;;;;;;6.75;100.00;96920.59;5057999;28;20025;-91
2021/12/04 02:14:39;;;;;;;11.70;7.38;;;;;;;6.55;100.00;96892.53;5057669;28;20024;-93
2021/12/04 02:17:05;;;;;;;12.98;7.47;;;;;;;6.69;100.00;96915.63;5025031;28;20031;-91
2021/12/04 02:19:31;;;;;;;11.10;6.97;;;;;;;6.72;100.00;96928.75;5057346;28;20028;-89
2021/12/04 02:21:57;;;;;;;9.50;6.43;;;;;;;6.78;100.00;96931.91;5041775;28;20406;-90
2021/12/04 02:24:23;;;;;;;13.20;6.53;;;;;;;6.58;100.00;96880.88;5057822;28;20064;-92
2021/12/04 02:26:50;;;;;;;12.25;7.00;;;;;;;6.88;100.00;96926.94;5041210;28;20040;-90
2021/12/04 02:29:16;;;;;;;14.82;8.07;;;;;;;6.82;100.00;96916.66;5040807;28;20040;-90
2021/12/04 02:31:50;;;;;;;13.75;7.90;;;;;;;6.83;100.00;96911.25;5041143;28;20028;-89
2021/12/04 02:34:20;;;;;;;13.60;7.00;;;;;;;6.99;100.00;96945.78;5041275;28;20041;-90
2021/12/04 02:36:46;;;;;;;10.40;6.18;;;;;;;6.84;100.00;96928.91;5040814;28;20112;-91
2021/12/04 02:39:24;;;;;;;10.50;6.72;;;;;;;6.81;100.00;96915.81;5041094;28;20063;-91
2021/12/04 02:41:50;;;;;;;10.25;6.78;;;;;;;6.87;100.00;96912.78;5041720;28;20503;-91
2021/12/04 02:44:16;;;;;;;7.70;5.00;;;;;;;6.71;100.00;96882.72;5056844;28;20027;-92
2021/12/04 02:46:41;;;;;;;8.05;3.97;;;;;;;6.89;100.00;96924.19;5040031;28;20104;-91
2021/12/04 02:49:09;;;;;;;6.25;3.90;;;;;;;6.86;100.00;96916.38;5041282;28;20017;-92
2021/12/04 02:51:35;;;;;;;4.40;3.20;;;;;;;6.52;100.00;96892.69;5058503;28;20498;-93
2021/12/04 02:54:00;;;;;;;5.32;3.40;;;;;;;6.43;100.00;96882.56;5040162;28;20079;-92
2021/12/04 02:56:26;;;;;;;5.40;3.75;;;;;;;6.46;100.00;96885.06;5040711;28;20025;-90
2021/12/04 02:58:56;;;;;;;6.65;4.05;;;;;;;6.34;100.00;96869.81;5041578;28;20024;-92
2021/12/04 03:01:22;;;;;;;6.95;3.50;;;;;;;6.44;100.00;96894.91;5042570;28;20127;-92
2021/12/04 03:03:47;;;;;;;6.63;3.47;;;;;;;6.57;100.00;96900.38;5041948;28;20527;-91
2021/12/04 03:06:13;;;;;;;4.95;3.60;;;;;;;6.51;100.00;96893.63;5041811;28;20415;-91
2021/12/04 03:08:39;;;;;;;5.60;3.78;;;;;;;6.49;100.00;96888.38;5041737;28;20037;-92
2021/12/04 03:11:04;;;;;;;5.88;3.83;;;;;;;6.41;100.00;96869.38;5043004;28;20024;-92
2021/12/04 03:13:30;;;;;;;4.82;3.50;;;;;;;6.47;100.00;96873.50;5041647;28;20128;-91
2021/12/04 03:15:59;;;;;;;7.90;4.10;;;;;;;6.53;100.00;96884.63;5040536;28;20025;-92
2021/12/04 03:18:26;;;;;;;7.75;4.05;;;;;;;6.45;100.00;96873.59;5042675;28;20029;-92
2021/12/04 03:20:54;;;;;;;7.57;3.92;;;;;;;6.43;100.00;96887.88;5040894;28;20028;-89
2021/12/04 03:23:30;;;;;;;5.80;4.05;;;;;;;6.32;100.00;96877.00;5040664;28;20052;-91
2021/12/04 03:25:58;;;;;;;6.78;4.53;;;;;;;6.24;100.00;96882.75;5041760;28;20029;-93
2021/12/04 03:28:24;;;;;;;7.13;4.60;;;;;;;6.22;100.00;96875.78;5040205;28;20028;-93
2021/12/04 03:30:55;;;;;;;6.25;4.15;;;;;;;6.27;100.00;96885.25;5040540;28;20037;-92
2021/12/04 03:41:17;;;;;;;5.28;3.67;;;;;;;6.47;100.00;96916.00;5058462;28;20036;-92
2021/12/04 03:43:44;;;;;;;5.93;3.72;;;;;;;6.46;100.00;96916.94;5041144;28;20420;-93
2021/12/04 03:46:14;;;;;;;6.80;4.32;;;;;;;6.44;100.00;96921.47;5041363;28;20059;-92
2021/12/04 03:48:50;;;;;;;5.72;3.70;;;;;;;6.15;100.00;96888.59;5042125;28;20035;-92
2021/12/04 03:51:17;;;;;;;6.38;4.10;;;;;;;6.43;100.00;96927.72;5043117;28;20032;-92
2021/12/04 03:53:43;;;;;;;5.78;3.90;;;;;;;6.22;100.00;96897.03;5041437;28;20112;-90
2021/12/04 03:56:10;;;;;;;5.05;3.50;;;;;;;6.32;100.00;96917.69;5040555;28;20067;-92
2021/12/04 03:58:36;;;;;;;5.13;3.25;;;;;;;6.25;100.00;96918.97;5041281;28;20028;-93
2021/12/04 04:01:02;;;;;;;5.22;3.78;;;;;;;6.24;100.00;96919.94;5042019;28;20060;-93
2021/12/04 04:03:27;;;;;;;5.68;3.85;;;;;;;6.32;100.00;96927.47;5041519;28;20032;-92
2021/12/04 04:05:54;;;;;;;6.38;3.70;;;;;;;6.30;100.00;96930.22;5043040;28;20029;-93
2021/12/04 04:08:21;;;;;;;6.32;4.28;;;;;;;6.26;100.00;96928.66;5042984;28;20015;-93
2021/12/04 04:10:49;;;;;;;7.85;4.45;;;;;;;6.35;100.00;96953.84;5040803;28;20036;-89
2021/12/04 04:13:14;;;;;;;7.45;3.10;;;;;;;6.39;100.00;96955.41;5041344;28;20044;-92
2021/12/04 04:15:41;;;;;;;3.63;2.88;;;;;;;6.38;100.00;96951.03;5041266;28;20021;-92
2021/12/04 04:18:07;;;;;;;5.85;3.83;;;;;;;6.25;100.00;96936.69;5040780;28;20025;-91
2021/12/04 04:20:32;;;;;;;5.90;3.63;;;;;;;6.28;100.00;96948.00;5039995;28;20029;-92
2021/12/04 04:22:58;;;;;;;5.80;3.60;;;;;;;6.32;100.00;96976.13;5057027;28;20222;-91
2021/12/04 04:25:24;;;;;;;4.45;3.45;;;;;;;6.24;100.00;96966.88;5040221;28;20053;-91
2021/12/04 04:27:50;;;;;;;7.55;3.83;;;;;;;6.16;100.00;96969.91;5056839;28;20071;-92
2021/12/04 04:30:18;;;;;;;4.65;3.60;;;;;;;6.21;100.00;96988.28;5040611;28;20032;-93
2021/12/04 04:32:46;;;;;;;4.82;3.60;;;;;;;6.02;100.00;96983.09;5041411;28;20057;-92
2021/12/04 04:35:14;;;;;;;5.70;3.58;;;;;;;5.73;100.00;96986.34;5040234;28;20051;-91
2021/12/04 04:40:28;;;;;;;4.93;3.42;;;;;;;5.57;100.00;96974.84;5056006;28;20048;-92
2021/12/04 05:13:01;;;;;;;8.02;4.80;;;;;;;4.91;100.00;97015.22;5000587;28;20030;-92
2021/12/04 05:18:19;;;;;;;8.82;5.18;;;;;;;5.01;100.00;97028.03;5003096;28;20033;-92
2021/12/04 05:21:03;;;;;;;10.90;5.40;;;;;;;4.91;100.00;97009.94;5025807;28;20026;-93
2021/12/04 05:23:30;;;;;;;17.02;9.05;;;;;;;5.11;100.00;97042.53;5025477;28;20033;-92
2021/12/04 05:25:56;;;;;;;12.95;8.07;;;;;;;4.95;100.00;97023.91;5023436;28;20026;-91
2021/12/04 05:28:22;;;;;;;12.90;6.78;;;;;;;4.95;100.00;97028.34;5041013;28;20033;-93
2021/12/04 05:30:48;;;;;;;10.88;6.50;;;;;;;4.93;100.00;97050.44;5044094;28;20018;-91
2021/12/04 05:33:14;;;;;;;10.30;5.85;;;;;;;4.83;100.00;97029.75;5060020;28;20044;-92
2021/12/04 05:35:40;;;;;;;8.80;5.60;;;;;;;5.00;100.00;97044.88;5042916;28;20036;-92
2021/12/04 05:38:06;;;;;;;8.73;5.63;;;;;;;4.77;100.00;97008.84;5043333;28;20112;-90
2021/12/04 05:40:31;;;;;;;11.45;5.75;;;;;;;4.86;100.00;97022.53;5044710;28;20029;-92
2021/12/04 05:43:02;;;;;;;10.30;5.95;;;;;;;4.81;100.00;97013.94;5058849;28;20123;-93
2021/12/04 05:45:30;;;;;;;15.40;6.95;;;;;;;4.81;100.00;97019.25;5059791;28;20036;-93
2021/12/04 05:48:07;;;;;;;15.88;7.15;;;;;;;4.74;100.00;97020.47;5060345;28;20025;-91
2021/12/04 05:53:27;;;;;;;10.80;6.70;;;;;;;5.00;100.00;97050.16;5056711;28;20029;-81
2021/12/04 05:55:53;;;;;;;11.43;6.88;;;;;;;4.91;100.00;97033.78;5045668;28;20029;-91
2021/12/04 05:58:31;;;;;;;11.52;6.15;;;;;;;4.96;100.00;97030.03;5043342;28;20032;-90
2021/12/04 06:01:03;;;;;;;8.20;5.43;;;;;;;4.73;100.00;96991.41;5045147;28;20025;-92
2021/12/04 06:03:29;;;;;;;13.68;7.22;;;;;;;4.95;100.00;97044.22;5043419;28;20488;-92
2021/12/04 06:05:55;;;;;;;13.63;8.57;;;;;;;4.75;100.00;97027.50;5043137;28;20032;-91
2021/12/04 06:08:21;;;;;;;23.52;13.27;;;;;;;4.71;100.00;97010.00;5043221;28;20048;-91
2021/12/04 06:10:48;;;;;;;32.25;18.00;;;;;;;4.57;100.00;97001.88;5042725;28;20025;-92
2021/12/04 06:13:14;;;;;;;27.42;16.02;;;;;;;4.79;100.00;97044.97;5044032;28;20412;-93
2021/12/04 06:15:40;;;;;;;24.13;13.70;;;;;;;4.91;100.00;97056.78;5045313;28;20562;-91
2021/12/04 06:18:08;;;;;;;38.33;19.23;;;;;;;4.88;100.00;97060.44;5048198;28;20088;-92
2021/12/04 06:23:19;;;;;;;41.38;19.85;;;;;;;4.68;100.00;97028.69;5063979;28;20112;-92
2021/12/04 06:25:45;;;;;;;40.05;19.85;;;;;;;4.79;100.00;97046.75;5051844;28;20025;-94
2021/12/04 06:28:20;;;;;;;34.92;18.73;;;;;;;4.68;100.00;97036.66;5039465;28;20028;-94
2021/12/04 06:30:46;;;;;;;49.75;24.05;;;;;;;4.39;100.00;96973.63;5070695;28;20053;-94
2021/12/04 06:33:21;;;;;;;135.55;42.75;;;;;;;4.29;100.00;96964.38;5054769;28;20025;-95
2021/12/04 06:35:48;;;;;;;139.18;42.75;;;;;;;4.24;100.00;96971.69;5036180;28;20025;-93
2021/12/04 06:38:17;;;;;;;142.20;46.65;;;;;;;4.40;100.00;96982.41;5052994;28;20013;-94
2021/12/04 06:40:43;;;;;;;114.68;40.35;;;;;;;4.62;100.00;97013.09;5046271;28;20094;-92
2021/12/04 06:43:10;;;;;;;53.03;18.00;;;;;;;4.54;100.00;96975.53;5048255;28;20083;-89
2021/12/04 06:45:38;;;;;;;44.55;17.15;;;;;;;4.47;100.00;96962.66;5046579;28;20041;-91
2021/12/04 06:48:11;;;;;;;36.78;17.35;;;;;;;4.97;100.00;97052.97;5048922;28;20190;-86
2021/12/04 06:55:54;;;;;;;51.10;23.35;;;;;;;4.72;100.00;97071.81;5037783;28;20538;-87
2021/12/04 06:58:22;;;;;;;46.00;21.85;;;;;;;4.77;100.00;97059.19;5052435;28;20029;-86
2021/12/04 07:00:48;;;;;;;29.13;15.32;;;;;;;4.64;100.00;97048.34;5037390;28;20024;-89
2021/12/04 07:03:14;;;;;;;19.65;11.32;;;;;;;4.61;100.00;97058.22;5038434;28;20033;-88
2021/12/04 07:05:39;;;;;;;16.77;8.70;;;;;;;4.61;100.00;97055.56;5037137;28;20036;-90
2021/12/04 07:08:05;;;;;;;18.73;11.68;;;;;;;4.72;100.00;97059.41;5037707;28;20037;-86
2021/12/04 07:10:33;;;;;;;12.00;7.32;;;;;;;4.48;100.00;97017.31;5034455;28;20064;-87
2021/12/04 07:12:58;;;;;;;12.98;7.05;;;;;;;4.67;100.00;97061.44;5052105;28;20033;-87
2021/12/04 07:15:31;;;;;;;13.25;8.18;;;;;;;4.57;100.00;97038.94;5035599;28;20036;-88
2021/12/04 07:17:59;;;;;;;22.30;12.10;;;;;;;4.43;100.00;97020.16;5036893;28;20496;-86
2021/12/04 07:20:25;;;;;;;17.85;9.50;;;;;;;4.81;100.00;97059.00;5036480;28;20108;-87
2021/12/04 07:22:50;;;;;;;13.35;8.30;;;;;;;5.06;100.00;97093.13;5036061;28;20032;-88
2021/12/04 07:25:17;;;;;;;21.80;11.32;;;;;;;4.95;100.00;97060.13;5052614;28;20046;-87
2021/12/04 07:27:43;;;;;;;19.35;11.13;;;;;;;5.20;100.00;97081.88;5036161;28;20039;-88
2021/12/04 07:30:09;;;;;;;19.60;9.48;;;;;;;5.41;100.00;97091.44;5036373;28;20116;-83
2021/12/04 07:32:36;;;;;;;60.22;29.67;;;;;;;5.41;100.00;97088.78;5029087;28;20103;-79
2021/12/04 07:35:03;;;;;;;16.42;9.93;;;;;;;5.32;100.00;97074.16;5051351;28;20515;-79
2021/12/04 07:37:29;;;;;;;48.35;28.08;;;;;;;5.36;100.00;97083.69;5050948;28;20029;-78
2021/12/04 07:39:55;;;;;;;16.98;10.57;;;;;;;5.41;100.00;97078.19;5051940;28;20086;-79
2021/12/04 07:42:21;;;;;;;11.43;7.43;;;;;;;5.57;100.00;97075.63;5033770;28;20029;-79
2021/12/04 07:44:46;;;;;;;19.45;10.00;;;;;;;5.65;100.00;97061.06;5049235;28;20028;-79
2021/12/04 07:47:12;;;;;;;16.35;9.18;;;;;;;5.67;100.00;97061.81;5033720;28;20099;-84
2021/12/04 07:49:38;;;;;;;35.75;20.55;;;;;;;5.76;100.00;97044.56;5032997;28;20048;-80
2021/12/04 07:52:06;;;;;;;12.70;8.50;;;;;;;5.92;98.69;97054.38;5031807;28;20068;-79
2021/12/04 07:54:32;;;;;;;12.63;7.03;;;;;;;6.10;96.05;97051.69;5026198;28;20056;-81
2021/12/04 07:56:57;;;;;;;11.23;6.80;;;;;;;6.13;94.56;97036.47;5032869;28;20111;-86
2021/12/04 07:59:24;;;;;;;14.57;8.13;;;;;;;6.40;92.94;97027.03;5051083;28;20128;-78
2021/12/04 08:01:49;;;;;;;19.95;10.05;;;;;;;6.69;90.47;97037.88;5033962;28;20056;-86
2021/12/04 08:04:15;;;;;;;22.38;13.60;;;;;;;6.60;89.97;97019.78;5049719;28;20573;-88
2021/12/04 08:06:43;;;;;;;15.48;9.73;;;;;;;6.58;88.88;97014.56;5049019;28;20166;-86
2021/12/04 08:09:09;;;;;;;14.65;9.25;;;;;;;6.53;89.04;97008.63;5035503;28;20518;-85
2021/12/04 08:11:35;;;;;;;18.13;11.05;;;;;;;7.05;85.80;97023.41;5033195;28;20068;-80
2021/12/04 08:14:00;;;;;;;20.83;12.02;;;;;;;7.32;85.80;97004.16;5050076;28;20106;-88
2021/12/04 08:16:26;;;;;;;31.45;17.52;;;;;;;7.72;82.90;97000.03;5050983;28;20021;-88
2021/12/04 08:18:53;;;;;;;44.40;24.42;;;;;;;7.27;83.67;96992.91;5034065;28;20480;-79
2021/12/04 08:21:19;;;;;;;31.23;18.70;;;;;;;7.68;82.22;96991.38;5048626;28;20028;-84
2021/12/04 08:23:45;;;;;;;17.65;10.73;;;;;;;7.88;80.32;96995.47;5048745;28;20025;-85
2021/12/04 08:26:10;;;;;;;22.25;12.30;;;;;;;7.71;80.15;96988.50;5031195;28;20036;-86
2021/12/04 08:28:36;;;;;;;19.30;11.45;;;;;;;7.95;79.06;96997.69;5033830;28;20090;-78
2021/12/04 08:31:02;;;;;;;24.30;11.48;;;;;;;7.95;78.28;97003.03;5027335;28;20033;-84
2021/12/04 08:33:32;;;;;;;20.75;11.20;;;;;;;8.17;76.13;96991.91;5033695;28;20072;-87
2021/12/04 08:35:58;;;;;;;23.73;13.35;;;;;;;8.16;76.71;96979.53;5032729;28;20029;-87
2021/12/04 08:38:23;;;;;;;13.18;7.80;;;;;;;8.35;75.64;96976.63;5049752;28;20506;-85
2021/12/04 08:40:49;;;;;;;17.13;9.50;;;;;;;8.52;74.19;96981.78;5048991;28;20072;-89
2021/12/04 08:43:14;;;;;;;14.77;9.23;;;;;;;8.51;73.86;96977.38;5049459;28;20064;-88
2021/12/04 08:45:42;;;;;;;15.30;8.80;;;;;;;8.74;71.84;96995.44;5050165;28;20071;-87
2021/12/04 08:48:07;;;;;;;19.83;9.60;;;;;;;8.67;71.85;96983.47;5032796;28;20153;-87
2021/12/04 08:50:34;;;;;;;15.02;9.52;;;;;;;8.54;70.66;96974.53;5032880;28;20556;-89
2021/12/04 08:53:01;;;;;;;16.05;9.40;;;;;;;8.63;69.65;96973.94;5032936;28;20124;-80
2021/12/04 08:55:28;;;;;;;14.30;9.73;;;;;;;8.66;69.50;96974.63;5036975;28;20092;-80
2021/12/04 08:57:54;;;;;;;11.18;6.63;;;;;;;8.41;69.13;96970.91;5056373;28;20034;-81
2021/12/04 09:00:29;;;;;;;9.77;6.53;;;;;;;8.40;69.54;96970.06;5053922;28;20024;-78
2021/12/04 09:02:55;;;;;;;12.77;8.00;;;;;;;8.38;72.11;96963.13;5029165;28;20021;-79
2021/12/04 09:05:21;;;;;;;12.05;7.20;;;;;;;8.24;69.52;96965.75;5037262;28;20152;-80
2021/12/04 09:07:47;;;;;;;9.45;5.53;;;;;;;8.14;71.13;96965.47;5039098;28;20055;-79
2021/12/04 09:10:14;;;;;;;6.07;3.90;;;;;;;8.40;69.22;96955.91;5041498;28;20040;-80
2021/12/04 09:12:40;;;;;;;16.10;7.70;;;;;;;8.49;69.30;96961.47;5057469;28;20037;-80
2021/12/04 09:15:09;;;;;;;13.13;7.88;;;;;;;8.55;69.30;96969.09;5040370;28;20021;-79
2021/12/04 09:17:34;;;;;;;19.02;10.77;;;;;;;8.42;71.13;96965.50;5043753;28;20032;-80
2021/12/04 09:20:00;;;;;;;17.27;9.82;;;;;;;8.25;71.30;96967.44;5059234;28;20078;-80
2021/12/04 09:22:31;;;;;;;15.68;9.45;;;;;;;8.12;74.16;96978.88;5061329;28;20036;-78
2021/12/04 09:25:00;;;;;;;22.70;11.82;;;;;;;8.10;76.43;96980.78;5046299;28;20028;-79
2021/12/04 09:27:44;;;;;;;16.13;10.60;;;;;;;7.99;74.75;96977.06;5064767;28;20025;-80
2021/12/04 10:00:45;;;;;;;14.30;8.55;;;;;;;7.47;77.84;97003.28;5054750;28;20103;-78
2021/12/04 10:14:52;;;;;;;13.07;6.53;;;;;;;7.77;76.32;97008.59;5054285;28;20542;-80
2021/12/04 10:33:41;;;;;;;32.88;18.00;;;;;;;8.15;72.98;96957.38;5056396;28;20036;-79
2021/12/04 10:36:06;;;;;;;34.42;22.88;;;;;;;8.21;71.61;96950.84;5041401;28;20028;-78
2021/12/04 10:38:39;;;;;;;16.98;9.52;;;;;;;8.30;71.38;96955.63;5042985;28;20033;-78
2021/12/04 10:41:06;;;;;;;9.27;5.72;;;;;;;8.11;71.07;96945.22;5044347;28;20021;-79
2021/12/04 10:43:32;;;;;;;16.92;7.47;;;;;;;8.18;72.83;96940.38;5045800;28;20052;-80
2021/12/04 10:46:01;;;;;;;16.30;9.85;;;;;;;8.41;71.94;96941.59;5042095;28;20045;-78
2021/12/04 10:48:31;;;;;;;11.20;6.68;;;;;;;8.39;69.63;96940.84;5060924;28;20484;-79
2021/12/04 10:51:18;;;;;;;11.75;7.15;;;;;;;8.52;69.53;96931.13;5044833;28;20083;-78
2021/12/04 10:53:53;;;;;;;11.73;6.78;;;;;;;8.27;70.72;96937.13;5060307;28;20046;-78
2021/12/04 10:59:50;;;;;;;11.73;7.45;;;;;;;8.74;69.29;96917.28;5061770;28;20097;-79
2021/12/04 11:02:03;;;;;;;17.73;10.25;;;;;;;9.03;68.51;96926.91;5054728;28;20033;-78
2021/12/04 11:40:06;;;;;;;33.25;19.20;;;;;;;8.22;73.00;96920.56;5059358;28;20047;-79
2021/12/04 11:45:27;;;;;;;15.80;8.88;;;;;;;8.17;73.68;96915.53;5061913;28;20084;-79
2021/12/04 11:47:56;;;;;;;10.25;6.03;;;;;;;7.92;73.38;96911.81;5051979;28;20028;-80
2021/12/04 11:50:28;;;;;;;13.27;7.13;;;;;;;8.04;72.65;96922.56;5048876;28;20039;-80
2021/12/04 11:53:07;;;;;;;9.73;5.47;;;;;;;8.10;74.58;96932.84;5067097;28;20512;-79
2021/12/04 11:55:35;;;;;;;14.15;7.85;;;;;;;8.16;71.66;96908.47;5060313;28;20028;-87
2021/12/04 11:58:01;;;;;;;9.23;5.68;;;;;;;8.30;72.07;96923.66;5038482;28;20562;-79
2021/12/04 12:00:32;;;;;;;8.07;4.35;;;;;;;8.01;73.74;96922.75;5031993;28;20148;-77
2021/12/04 12:03:16;;;;;;;7.13;4.10;;;;;;;7.57;74.04;96922.78;5051145;28;20024;-77
2021/12/04 12:05:52;;;;;;;11.73;6.85;;;;;;;7.89;75.02;96920.00;5068800;28;20028;-78
2021/12/04 12:08:23;;;;;;;12.20;8.13;;;;;;;7.89;75.00;96923.50;5068278;28;20036;-75
2021/12/04 12:10:51;;;;;;;8.68;5.72;;;;;;;7.95;74.43;96906.28;5050159;28;20411;-75
2021/12/04 12:13:45;;;;;;;11.77;6.90;;;;;;;8.05;73.46;96924.28;5033922;28;20150;-77
2021/12/04 12:16:24;;;;;;;9.63;5.65;;;;;;;7.80;73.78;96928.53;5068445;28;20032;-76
2021/12/04 12:18:58;;;;;;;6.10;4.20;;;;;;;7.73;74.25;96917.41;5050134;28;20187;-79
2021/12/04 12:21:40;;;;;;;25.98;9.98;;;;;;;7.93;73.39;96926.84;5033980;28;20081;-77
2021/12/04 12:27:21;;;;;;;21.67;9.93;;;;;;;7.99;74.15;96923.81;5053026;28;20407;-78
2021/12/04 12:38:30;;;;;;;5.57;3.85;;;;;;;8.17;71.29;96917.34;5054056;28;20556;-77
2021/12/04 12:41:01;;;;;;;10.50;6.57;;;;;;;8.19;72.46;96928.75;5051205;28;20415;-78
2021/12/04 12:43:46;;;;;;;12.53;5.13;;;;;;;8.14;72.19;96930.84;5034012;28;21004;-77
2021/12/04 12:46:12;;;;;;;14.52;7.32;;;;;;;8.24;71.54;96936.47;5067676;28;20295;-77
2021/12/04 12:48:56;;;;;;;10.85;6.45;;;;;;;8.25;72.45;96930.16;5033912;28;20151;-78
2021/12/04 12:51:25;;;;;;;10.15;6.57;;;;;;;7.95;74.57;96931.13;5050222;28;20025;-79
2021/12/04 12:53:50;;;;;;;11.40;7.00;;;;;;;8.13;84.42;96931.78;5034292;28;20041;-78
2021/12/04 12:56:17;;;;;;;10.32;6.32;;;;;;;8.26;77.88;96934.53;5050703;28;20024;-80
2021/12/04 12:58:49;;;;;;;10.85;6.40;;;;;;;8.34;75.39;96938.47;5034212;28;20028;-82
2021/12/04 13:13:37;;;;;;;11.85;7.30;;;;;;;8.36;76.94;96935.72;5071857;28;20155;-82
2021/12/04 13:16:15;;;;;;;10.45;5.82;;;;;;;8.29;76.01;96939.72;5037951;28;20077;-82
2021/12/04 13:18:41;;;;;;;12.13;6.78;;;;;;;8.05;75.45;96924.28;5054552;28;20107;-81
2021/12/04 13:21:25;;;;;;;12.50;7.75;;;;;;;8.15;77.28;96936.06;5038239;28;20097;-81
2021/12/04 13:23:54;;;;;;;11.73;7.03;;;;;;;8.25;78.67;96941.69;5054757;28;20391;-79
2021/12/04 13:26:26;;;;;;;12.63;7.32;;;;;;;8.37;79.29;96929.41;5053936;28;20024;-80
2021/12/04 13:28:51;;;;;;;20.93;12.23;;;;;;;8.38;78.40;96925.81;5054122;28;20910;-79
2021/12/04 13:31:18;;;;;;;15.77;8.00;;;;;;;8.27;75.23;96921.16;5051407;28;20354;-83
2021/12/04 13:33:47;;;;;;;12.52;7.53;;;;;;;8.19;74.41;96916.28;5038803;28;20020;-77
2021/12/04 13:36:24;;;;;;;19.90;10.43;;;;;;;8.17;75.87;96926.19;5038575;28;20028;-77
2021/12/04 13:39:12;;;;;;;21.02;11.00;;;;;;;8.02;74.69;96913.81;5047907;28;20032;-78
2021/12/04 13:41:39;;;;;;;12.35;7.43;;;;;;;7.88;75.06;96902.28;5037840;28;20024;-80
2021/12/04 13:44:07;;;;;;;14.75;8.45;;;;;;;7.92;74.88;96914.47;5032821;28;20035;-79
2021/12/04 13:46:46;;;;;;;13.35;9.32;;;;;;;7.78;75.91;96910.00;5059289;28;20040;-95
2021/12/04 13:49:14;;;;;;;10.25;6.35;;;;;;;7.71;76.28;96894.50;5068538;28;20025;-90
2021/12/04 13:51:40;;;;;;;12.20;7.15;;;;;;;7.61;76.57;96899.53;5086098;28;20060;-93
2021/12/04 13:54:07;;;;;;;22.98;13.45;;;;;;;7.57;81.36;96900.66;5053701;28;20060;-91
2021/12/04 13:56:33;;;;;;;15.43;8.77;;;;;;;7.58;78.06;96889.91;5048788;28;20052;-90
2021/12/04 13:59:23;;;;;;;13.68;6.88;;;;;;;7.53;76.22;96891.16;5055854;28;20048;-91
2021/12/04 14:01:49;;;;;;;10.52;6.90;;;;;;;7.40;77.62;96892.84;5068186;28;20074;-92
2021/12/04 14:04:16;;;;;;;32.80;18.70;;;;;;;7.30;78.18;96902.28;5052646;28;20044;-93
2021/12/04 14:06:59;;;;;;;30.63;19.13;;;;;;;7.31;78.74;96898.69;5061528;28;20025;-91
2021/12/04 14:09:35;;;;;;;25.70;13.95;;;;;;;7.42;82.19;96896.25;5055681;28;20044;-90
2021/12/04 14:12:02;;;;;;;17.48;10.60;;;;;;;7.38;77.77;96892.09;5059021;28;20100;-94
2021/12/04 14:14:31;;;;;;;31.52;12.15;;;;;;;7.26;80.71;96887.50;5059450;28;20036;-93
2021/12/04 14:17:09;;;;;;;68.38;31.33;;;;;;;7.27;78.88;96891.84;5079050;28;20039;-94
2021/12/04 14:19:37;;;;;;;28.80;13.63;;;;;;;7.23;78.57;96885.84;5059275;28;20059;-93
2021/12/04 14:22:05;;;;;;;31.40;16.80;;;;;;;7.22;80.29;96893.94;5060378;28;20029;-93
2021/12/04 14:24:36;;;;;;;32.00;17.10;;;;;;;7.25;79.15;96889.28;5074265;28;20036;-94
2021/12/04 14:27:04;;;;;;;17.43;10.10;;;;;;;7.15;82.33;96881.94;5070739;28;20020;-92
2021/12/04 14:32:56;;;;;;;29.05;16.15;;;;;;;6.90;83.76;96880.72;5096370;28;20047;-92
2021/12/04 14:35:50;;;;;;;35.83;17.27;;;;;;;6.92;83.93;96881.47;5079100;28;20050;-95
2021/12/04 14:43:53;;;;;;;16.33;9.23;;;;;;;7.17;81.39;96893.34;5467441;22;20410;-94
2021/12/04 14:46:23;;;;;;;12.85;7.55;;;;;;;7.19;80.68;96888.78;5645530;22;20030;-90
2021/12/04 14:48:51;;;;;;;171.77;81.43;;;;;;;6.76;80.56;96814.22;5115524;27;20050;-92
2021/12/04 14:51:26;;;;;;;28.05;15.10;;;;;;;7.05;80.70;96855.88;5122886;27;20068;-90
2021/12/04 14:53:57;;;;;;;28.65;14.68;;;;;;;7.20;81.40;96894.00;5129668;27;20035;-91